createdAt,value
2023-04-22T00:01:20.171Z,16.49
2023-04-22T00:03:47.447Z,16.48
2023-04-22T00:06:14.592Z,16.48
2023-04-22T00:08:41.950Z,16.48
2023-04-22T00:11:09.095Z,16.44
2023-04-22T00:13:37.189Z,16.40
2023-04-22T00:16:05.053Z,16.38
2023-04-22T00:18:36.296Z,16.35
2023-04-22T00:21:04.645Z,16.32
2023-04-22T00:23:31.663Z,16.31
2023-04-22T00:25:58.731Z,16.29
2023-04-22T00:28:26.391Z,16.27
2023-04-22T00:30:54.154Z,16.25
2023-04-22T00:33:21.444Z,16.23
2023-04-22T00:35:48.390Z,16.21
2023-04-22T00:38:15.449Z,16.19
2023-04-22T00:40:42.645Z,16.17
2023-04-22T00:43:09.886Z,16.16
2023-04-22T00:45:37.839Z,16.12
2023-04-22T00:48:05.493Z,16.08
2023-04-22T00:50:33.231Z,16.04
2023-04-22T00:53:00.538Z,16.01
2023-04-22T00:55:28.302Z,15.98
2023-04-22T00:57:57.151Z,15.94
2023-04-22T01:00:27.409Z,15.94
2023-04-22T01:02:55.945Z,15.91
2023-04-22T01:05:24.811Z,15.88
2023-04-22T01:07:51.872Z,15.87
2023-04-22T01:10:19.854Z,15.83
2023-04-22T01:12:47.405Z,15.83
2023-04-22T01:15:14.900Z,15.82
2023-04-22T01:17:42.055Z,15.79
2023-04-22T01:20:12.399Z,15.77
2023-04-22T01:22:50.400Z,15.75
2023-04-22T01:25:17.729Z,15.74
2023-04-22T01:27:45.174Z,15.71
2023-04-22T01:30:13.334Z,15.69
2023-04-22T01:32:41.635Z,15.69
2023-04-22T01:35:10.457Z,15.67
2023-04-22T01:37:38.414Z,15.65
2023-04-22T01:40:07.726Z,15.64
2023-04-22T01:42:35.681Z,15.62
2023-04-22T01:45:03.138Z,15.60
2023-04-22T01:47:30.555Z,15.56
2023-04-22T01:49:57.836Z,15.53
2023-04-22T01:52:27.737Z,15.51
2023-04-22T01:54:55.349Z,15.49
2023-04-22T01:57:22.448Z,15.48
2023-04-22T01:59:49.641Z,15.42
2023-04-22T02:02:16.823Z,15.39
2023-04-22T02:04:43.935Z,15.31
2023-04-22T02:07:11.080Z,15.27
2023-04-22T02:09:38.986Z,15.21
2023-04-22T02:12:08.017Z,15.17
2023-04-22T02:14:35.389Z,15.15
2023-04-22T02:17:03.639Z,15.12
2023-04-22T02:19:30.661Z,15.12
2023-04-22T02:21:58.302Z,15.10
2023-04-22T02:24:25.533Z,15.07
2023-04-22T02:26:52.678Z,15.05
2023-04-22T02:29:19.954Z,15.04
2023-04-22T02:31:47.724Z,15.02
2023-04-22T02:34:15.193Z,15.04
2023-04-22T02:36:42.254Z,15.00
2023-04-22T02:39:09.236Z,14.99
2023-04-22T02:41:36.922Z,14.90
2023-04-22T02:44:04.928Z,14.88
2023-04-22T02:46:31.979Z,14.88
2023-04-22T02:48:59.048Z,14.88
2023-04-22T02:51:26.774Z,14.87
2023-04-22T02:53:54.164Z,14.87
2023-04-22T02:56:21.533Z,14.87
2023-04-22T02:58:48.620Z,14.87
2023-04-22T03:01:15.666Z,14.84
2023-04-22T03:03:43.401Z,14.80
2023-04-22T03:06:13.895Z,14.77
2023-04-22T03:08:41.581Z,14.71
2023-04-22T03:11:08.832Z,14.69
2023-04-22T03:13:35.752Z,14.64
2023-04-22T03:16:02.800Z,14.61
2023-04-22T03:18:29.781Z,14.55
2023-04-22T03:20:56.732Z,14.54
2023-04-22T03:23:24.053Z,14.54
2023-04-22T03:25:51.157Z,14.52
2023-04-22T03:28:21.371Z,14.51
2023-04-22T03:30:48.723Z,14.51
2023-04-22T03:33:15.930Z,14.45
2023-04-22T03:35:49.835Z,14.34
2023-04-22T03:38:17.798Z,14.34
2023-04-22T03:40:45.251Z,14.19
2023-04-22T03:43:36.924Z,14.27
2023-04-22T03:46:08.285Z,14.31
2023-04-22T03:48:38.883Z,14.34
2023-04-22T03:51:11.780Z,14.35
2023-04-22T03:53:41.562Z,14.36
2023-04-22T03:56:11.665Z,14.39
2023-04-22T03:58:43.959Z,14.40
2023-04-22T04:01:11.514Z,14.39
2023-04-22T04:03:40.071Z,14.39
2023-04-22T04:06:09.538Z,14.39
2023-04-22T04:08:37.234Z,14.38
2023-04-22T04:11:05.035Z,14.37
2023-04-22T04:13:32.625Z,14.37
2023-04-22T04:16:21.648Z,14.37
2023-04-22T04:18:55.137Z,14.34
2023-04-22T04:21:24.702Z,14.30
2023-04-22T04:23:53.248Z,14.29
2023-04-22T04:26:28.037Z,14.26
2023-04-22T04:29:02.622Z,14.24
2023-04-22T04:31:29.965Z,14.23
2023-04-22T04:33:59.202Z,14.23
2023-04-22T04:36:29.512Z,14.24
2023-04-22T04:39:08.430Z,14.22
2023-04-22T04:41:38.727Z,14.23
2023-04-22T04:44:07.011Z,14.22
2023-04-22T04:46:37.902Z,14.21
2023-04-22T04:49:09.492Z,14.19
2023-04-22T04:51:45.771Z,14.18
2023-04-22T04:54:13.560Z,14.17
2023-04-22T04:56:41.921Z,14.17
2023-04-22T04:59:10.674Z,14.15
2023-04-22T05:01:39.719Z,14.13
2023-04-22T05:04:09.406Z,14.07
2023-04-22T05:06:40.200Z,14.07
2023-04-22T05:09:08.358Z,14.08
2023-04-22T05:11:36.783Z,14.08
2023-04-22T05:14:11.165Z,14.08
2023-04-22T05:16:41.804Z,14.12
2023-04-22T05:19:09.716Z,14.13
2023-04-22T05:21:36.819Z,14.16
2023-04-22T05:24:04.771Z,14.15
2023-04-22T05:26:32.359Z,14.15
2023-04-22T05:29:00.974Z,14.12
2023-04-22T05:31:30.062Z,14.11
2023-04-22T05:33:57.704Z,14.11
2023-04-22T05:36:28.390Z,14.12
2023-04-22T05:38:58.331Z,14.12
2023-04-22T05:41:26.238Z,14.16
2023-04-22T05:43:54.956Z,14.18
2023-04-22T05:46:22.563Z,14.17
2023-04-22T05:48:50.140Z,14.18
2023-04-22T05:51:40.408Z,14.18
2023-04-22T05:54:08.284Z,14.17
2023-04-22T05:56:36.421Z,14.16
2023-04-22T05:59:03.549Z,14.18
2023-04-22T06:01:30.787Z,14.20
2023-04-22T06:04:10.204Z,14.22
2023-04-22T06:06:37.954Z,14.23
2023-04-22T06:09:07.372Z,14.24
2023-04-22T06:11:36.720Z,14.25
2023-04-22T06:14:03.666Z,14.27
2023-04-22T06:16:31.400Z,14.22
2023-04-22T06:18:58.482Z,14.24
2023-04-22T06:21:26.028Z,14.26
2023-04-22T06:23:53.132Z,14.30
2023-04-22T06:26:22.227Z,14.34
2023-04-22T06:28:49.619Z,14.38
2023-04-22T06:31:21.144Z,14.41
2023-04-22T06:33:48.615Z,14.42
2023-04-22T06:36:15.868Z,14.46
2023-04-22T06:38:45.950Z,14.47
2023-04-22T06:41:41.526Z,14.53
2023-04-22T06:44:22.743Z,14.52
2023-04-22T06:47:22.056Z,14.54
2023-04-22T06:49:54.799Z,14.59
2023-04-22T06:52:25.662Z,14.68
2023-04-22T06:54:56.794Z,14.73
2023-04-22T06:57:23.879Z,14.70
2023-04-22T06:59:50.984Z,14.72
2023-04-22T07:02:18.631Z,14.67
2023-04-22T07:04:46.116Z,14.64
2023-04-22T07:07:14.046Z,14.76
2023-04-22T07:09:41.909Z,14.78
2023-04-22T07:12:09.660Z,14.85
2023-04-22T07:14:38.323Z,14.78
2023-04-22T07:17:05.494Z,14.78
2023-04-22T07:19:33.982Z,14.93
2023-04-22T07:22:03.981Z,15.04
2023-04-22T07:24:31.204Z,15.15
2023-04-22T07:26:58.710Z,15.20
2023-04-22T07:29:25.928Z,15.31
2023-04-22T07:31:53.405Z,15.31
2023-04-22T07:34:20.908Z,15.28
2023-04-22T07:36:48.008Z,15.40
2023-04-22T07:39:15.106Z,15.39
2023-04-22T07:41:42.322Z,15.50
2023-04-22T07:44:10.750Z,15.43
2023-04-22T07:46:38.116Z,15.60
2023-04-22T07:49:05.420Z,15.71
2023-04-22T07:51:32.604Z,15.79
2023-04-22T07:54:00.123Z,15.86
2023-04-22T07:56:27.529Z,15.93
2023-04-22T07:58:54.567Z,15.99
2023-04-22T08:01:21.912Z,16.10
2023-04-22T08:03:49.322Z,16.18
2023-04-22T08:06:17.198Z,16.29
2023-04-22T08:08:44.712Z,16.38
2023-04-22T08:11:11.906Z,16.46
2023-04-22T08:13:38.852Z,16.51
2023-04-22T08:16:07.538Z,16.50
2023-04-22T08:18:35.584Z,16.51
2023-04-22T08:21:02.939Z,16.56
2023-04-22T08:23:29.845Z,16.53
2023-04-22T08:25:56.862Z,16.65
2023-04-22T08:28:24.217Z,16.74
2023-04-22T08:30:51.575Z,16.79
2023-04-22T08:33:19.147Z,16.82
2023-04-22T08:35:46.554Z,16.89
2023-04-22T08:38:14.156Z,17.01
2023-04-22T08:40:42.619Z,17.10
2023-04-22T08:43:10.110Z,17.13
2023-04-22T08:45:41.289Z,17.08
2023-04-22T08:48:12.883Z,17.10
2023-04-22T08:50:40.077Z,17.04
2023-04-22T08:53:07.147Z,17.01
2023-04-22T08:55:35.674Z,16.96
2023-04-22T08:58:06.137Z,17.02
2023-04-22T09:00:34.691Z,17.10
2023-04-22T09:03:03.684Z,17.15
2023-04-22T09:05:34.568Z,17.12
2023-04-22T09:08:03.588Z,17.09
2023-04-22T09:10:33.960Z,17.21
2023-04-22T09:13:04.627Z,17.16
2023-04-22T09:15:32.781Z,17.25
2023-04-22T09:17:59.839Z,17.31
2023-04-22T09:20:29.757Z,17.39
2023-04-22T09:22:58.667Z,17.48
2023-04-22T09:25:27.584Z,17.41
2023-04-22T09:27:59.769Z,17.60
2023-04-22T09:30:32.771Z,17.50
2023-04-22T09:33:04.156Z,17.69
2023-04-22T09:35:32.965Z,17.77
2023-04-22T09:38:03.209Z,17.82
2023-04-22T09:40:31.995Z,17.89
2023-04-22T09:43:02.960Z,17.88
2023-04-22T09:45:31.646Z,18.09
2023-04-22T09:48:09.630Z,18.14
2023-04-22T09:50:39.083Z,18.05
2023-04-22T09:53:09.829Z,18.17
2023-04-22T09:55:42.381Z,18.13
2023-04-22T09:58:12.765Z,18.20
2023-04-22T10:00:51.040Z,18.26
2023-04-22T10:03:19.229Z,18.35
2023-04-22T10:05:47.009Z,18.41
2023-04-22T10:08:16.230Z,18.48
2023-04-22T10:10:44.079Z,18.44
2023-04-22T10:13:11.162Z,18.64
2023-04-22T10:15:46.248Z,18.58
2023-04-22T10:18:24.717Z,18.54
2023-04-22T10:20:53.823Z,18.59
2023-04-22T10:23:23.566Z,18.67
2023-04-22T10:25:55.691Z,18.86
2023-04-22T10:28:25.770Z,18.86
2023-04-22T10:30:53.696Z,18.88
2023-04-22T10:33:34.780Z,18.88
2023-04-22T10:36:22.054Z,18.91
2023-04-22T10:38:55.147Z,18.96
2023-04-22T10:41:37.348Z,19.01
2023-04-22T10:44:08.558Z,19.10
2023-04-22T10:46:39.919Z,19.19
2023-04-22T10:49:18.347Z,19.22
2023-04-22T10:51:59.958Z,19.25
2023-04-22T10:54:32.546Z,19.28
2023-04-22T10:57:15.448Z,19.44
2023-04-22T10:59:53.142Z,19.58
2023-04-22T11:02:22.375Z,19.64
2023-04-22T11:04:51.298Z,19.69
2023-04-22T11:07:23.081Z,19.87
2023-04-22T11:09:54.556Z,19.97
2023-04-22T11:12:39.648Z,19.96
2023-04-22T11:15:16.208Z,20.05
2023-04-22T11:17:46.672Z,20.04
2023-04-22T11:20:18.567Z,20.14
2023-04-22T11:22:56.832Z,20.11
2023-04-22T11:25:26.821Z,20.27
2023-04-22T11:27:55.407Z,20.46
2023-04-22T11:30:26.174Z,20.42
2023-04-22T11:32:57.432Z,20.51
2023-04-22T11:35:34.173Z,20.37
2023-04-22T11:38:06.446Z,20.45
2023-04-22T11:40:42.098Z,20.55
2023-04-22T11:43:11.675Z,20.68
2023-04-22T11:45:40.320Z,20.69
2023-04-22T11:48:09.827Z,20.72
2023-04-22T11:50:40.261Z,20.68
2023-04-22T11:53:20.124Z,20.75
2023-04-22T11:55:53.571Z,20.73
2023-04-22T11:58:28.268Z,20.92
2023-04-22T12:00:58.473Z,21.09
2023-04-22T12:03:28.766Z,21.26
2023-04-22T12:05:59.732Z,20.97
2023-04-22T12:08:47.641Z,20.97
2023-04-22T12:11:15.688Z,21.18
2023-04-22T12:13:46.344Z,21.31
2023-04-22T12:16:15.694Z,21.43
2023-04-22T12:18:52.865Z,21.60
2023-04-22T12:21:25.964Z,21.59
2023-04-22T12:24:05.179Z,21.63
2023-04-22T12:26:32.249Z,21.70
2023-04-22T12:29:01.444Z,21.72
2023-04-22T12:31:28.771Z,21.67
2023-04-22T12:33:56.545Z,21.65
2023-04-22T12:36:23.890Z,21.67
2023-04-22T12:38:51.374Z,21.68
2023-04-22T12:41:18.586Z,21.74
2023-04-22T12:43:45.770Z,21.84
2023-04-22T12:46:14.106Z,21.68
2023-04-22T12:48:42.835Z,21.67
2023-04-22T12:51:10.102Z,21.65
2023-04-22T12:53:37.345Z,21.75
2023-04-22T12:56:04.861Z,21.83
2023-04-22T12:58:31.804Z,21.97
2023-04-22T13:00:58.950Z,22.05
2023-04-22T13:03:26.305Z,22.03
2023-04-22T13:05:53.581Z,22.01
2023-04-22T13:08:21.281Z,22.11
2023-04-22T13:10:49.028Z,21.97
2023-04-22T13:13:18.995Z,22.14
2023-04-22T13:15:53.265Z,22.37
2023-04-22T13:18:22.190Z,22.50
2023-04-22T13:20:49.187Z,22.64
2023-04-22T13:23:17.284Z,22.76
2023-04-22T13:25:44.526Z,22.84
2023-04-22T13:28:11.789Z,22.91
2023-04-22T13:30:40.118Z,23.01
2023-04-22T13:33:07.513Z,23.01
2023-04-22T13:35:34.664Z,22.97
2023-04-22T13:38:01.977Z,22.93
2023-04-22T13:40:29.065Z,22.74
2023-04-22T13:42:56.107Z,22.79
2023-04-22T13:45:23.405Z,22.87
2023-04-22T13:47:50.892Z,22.99
2023-04-22T13:50:18.235Z,22.97
2023-04-22T13:52:46.268Z,22.94
2023-04-22T13:55:13.973Z,22.90
2023-04-22T13:57:41.166Z,23.01
2023-04-22T14:00:09.837Z,23.04
2023-04-22T14:02:40.450Z,23.05
2023-04-22T14:05:10.548Z,22.96
2023-04-22T14:07:38.057Z,22.93
2023-04-22T14:10:08.547Z,22.92
2023-04-22T14:12:35.690Z,22.95
2023-04-22T14:15:02.863Z,23.04
2023-04-22T14:17:30.196Z,23.05
2023-04-22T14:19:57.289Z,23.10
2023-04-22T14:22:24.468Z,23.26
2023-04-22T14:24:51.531Z,23.35
2023-04-22T14:27:19.141Z,23.31
2023-04-22T14:29:46.342Z,23.29
2023-04-22T14:32:13.335Z,23.31
2023-04-22T14:34:40.388Z,23.25
2023-04-22T14:37:07.402Z,23.27
2023-04-22T14:39:34.341Z,23.26
2023-04-22T14:42:02.585Z,23.38
2023-04-22T14:44:29.713Z,23.44
2023-04-22T14:46:56.819Z,23.51
2023-04-22T14:49:23.830Z,23.46
2023-04-22T14:51:51.018Z,23.44
2023-04-22T14:54:18.035Z,23.41
2023-04-22T14:56:45.093Z,23.40
2023-04-22T14:59:12.049Z,23.36
2023-04-22T15:01:41.794Z,23.19
2023-04-22T15:04:11.584Z,23.19
2023-04-22T15:06:38.687Z,23.15
2023-04-22T15:09:05.934Z,23.16
2023-04-22T15:11:33.632Z,23.02
2023-04-22T15:14:00.621Z,23.08
2023-04-22T15:16:27.859Z,23.09
2023-04-22T15:18:55.819Z,23.13
2023-04-22T15:21:22.948Z,23.14
2023-04-22T15:23:50.856Z,23.16
2023-04-22T15:26:17.987Z,23.16
2023-04-22T15:28:45.221Z,23.16
2023-04-22T15:31:12.370Z,22.93
2023-04-22T15:33:39.366Z,23.06
2023-04-22T15:36:07.029Z,23.03
2023-04-22T15:38:34.055Z,23.05
2023-04-22T15:41:01.368Z,23.11
2023-04-22T15:43:28.476Z,23.05
2023-04-22T15:45:58.632Z,23.07
2023-04-22T15:48:25.780Z,23.10
2023-04-22T15:50:52.797Z,23.06
2023-04-22T15:53:19.768Z,22.93
2023-04-22T15:55:48.108Z,22.72
2023-04-22T15:58:16.160Z,22.79
2023-04-22T16:00:43.220Z,22.71
2023-04-22T16:03:11.511Z,22.73
2023-04-22T16:05:39.212Z,22.80
2023-04-22T16:08:06.262Z,22.84
2023-04-22T16:10:33.266Z,22.87
2023-04-22T16:13:00.218Z,22.77
2023-04-22T16:15:27.322Z,22.72
2023-04-22T16:17:54.320Z,22.72
2023-04-22T16:20:21.402Z,22.73
2023-04-22T16:22:48.405Z,22.70
2023-04-22T16:25:15.629Z,22.69
2023-04-22T16:27:42.650Z,22.67
2023-04-22T16:30:10.181Z,22.67
2023-04-22T16:32:37.310Z,22.64
2023-04-22T16:35:04.879Z,22.63
2023-04-22T16:37:32.223Z,22.63
2023-04-22T16:39:59.289Z,22.63
2023-04-22T16:42:27.065Z,22.61
2023-04-22T16:44:54.098Z,22.58
2023-04-22T16:47:21.060Z,22.54
2023-04-22T16:49:48.031Z,22.53
2023-04-22T16:52:15.244Z,22.50
2023-04-22T16:54:42.792Z,22.49
2023-04-22T16:57:11.427Z,22.48
2023-04-22T16:59:39.266Z,22.44
2023-04-22T17:02:06.664Z,22.44
2023-04-22T17:04:33.933Z,22.38
2023-04-22T17:07:01.020Z,22.31
2023-04-22T17:09:28.400Z,22.29
2023-04-22T17:11:56.877Z,22.26
2023-04-22T17:14:24.924Z,22.22
2023-04-22T17:16:52.073Z,22.22
2023-04-22T17:19:19.033Z,22.15
2023-04-22T17:21:46.062Z,22.10
2023-04-22T17:24:13.485Z,22.09
2023-04-22T17:26:40.782Z,22.09
2023-04-22T17:29:08.340Z,22.05
2023-04-22T17:31:35.415Z,22.00
2023-04-22T17:34:03.450Z,21.98
2023-04-22T17:36:31.699Z,21.91
2023-04-22T17:38:58.730Z,21.88
2023-04-22T17:41:25.862Z,21.88
2023-04-22T17:43:52.842Z,21.87
2023-04-22T17:46:20.230Z,21.83
2023-04-22T17:48:47.594Z,21.81
2023-04-22T17:51:15.574Z,21.81
2023-04-22T17:53:43.209Z,21.80
2023-04-22T17:56:10.460Z,21.79
2023-04-22T17:58:38.811Z,21.77
2023-04-22T18:01:08.538Z,21.76
2023-04-22T18:03:36.636Z,21.76
2023-04-22T18:06:03.994Z,21.73
2023-04-22T18:08:31.468Z,21.71
2023-04-22T18:10:59.191Z,21.69
2023-04-22T18:13:27.095Z,21.66
2023-04-22T18:15:54.164Z,21.63
2023-04-22T18:18:21.116Z,21.59
2023-04-22T18:20:48.032Z,21.55
2023-04-22T18:23:15.136Z,21.51
2023-04-22T18:25:42.159Z,21.46
2023-04-22T18:28:09.103Z,21.42
2023-04-22T18:30:36.023Z,21.37
2023-04-22T18:33:04.739Z,21.31
2023-04-22T18:35:32.940Z,21.27
2023-04-22T18:37:59.953Z,21.21
2023-04-22T18:40:30.594Z,21.17
2023-04-22T18:42:57.835Z,21.13
2023-04-22T18:45:25.007Z,21.10
2023-04-22T18:47:52.949Z,21.04
2023-04-22T18:50:21.129Z,20.99
2023-04-22T18:52:48.567Z,20.95
2023-04-22T18:55:16.144Z,20.90
2023-04-22T18:57:43.791Z,20.86
2023-04-22T19:00:13.268Z,20.83
2023-04-22T19:02:42.369Z,20.78
2023-04-22T19:05:09.999Z,20.75
2023-04-22T19:07:38.355Z,20.72
2023-04-22T19:10:07.751Z,20.69
2023-04-22T19:12:35.228Z,20.66
2023-04-22T19:15:02.512Z,20.64
2023-04-22T19:17:29.697Z,20.62
2023-04-22T19:19:56.875Z,20.60
2023-04-22T19:22:24.234Z,20.57
2023-04-22T19:24:51.315Z,20.53
2023-04-22T19:27:19.010Z,20.50
2023-04-22T19:29:51.280Z,20.46
2023-04-22T19:32:18.843Z,20.43
2023-04-22T19:34:47.240Z,20.40
2023-04-22T19:37:14.245Z,20.36
2023-04-22T19:39:41.394Z,20.31
2023-04-22T19:42:08.550Z,20.28
2023-04-22T19:44:36.464Z,20.23
2023-04-22T19:47:03.748Z,20.19
2023-04-22T19:49:31.811Z,20.16
2023-04-22T19:52:01.971Z,20.13
2023-04-22T19:54:30.140Z,20.12
2023-04-22T19:56:58.548Z,20.08
2023-04-22T19:59:28.029Z,20.05
2023-04-22T20:01:55.514Z,20.00
2023-04-22T20:04:23.261Z,19.95
2023-04-22T20:06:51.609Z,19.90
2023-04-22T20:09:19.376Z,19.86
2023-04-22T20:11:48.226Z,19.82
2023-04-22T20:14:15.321Z,19.80
2023-04-22T20:16:42.684Z,19.78
2023-04-22T20:19:11.454Z,19.78
2023-04-22T20:21:40.100Z,19.77
2023-04-22T20:24:08.224Z,19.76
2023-04-22T20:26:35.436Z,19.76
2023-04-22T20:29:03.332Z,19.75
2023-04-22T20:31:30.554Z,19.71
2023-04-22T20:33:58.154Z,19.67
2023-04-22T20:36:26.748Z,19.67
2023-04-22T20:38:55.129Z,19.62
2023-04-22T20:41:24.618Z,19.59
2023-04-22T20:43:52.421Z,19.56
2023-04-22T20:46:22.652Z,19.54
2023-04-22T20:48:50.132Z,19.53
2023-04-22T20:51:17.282Z,19.51
2023-04-22T20:53:45.437Z,19.48
2023-04-22T20:56:13.249Z,19.47
2023-04-22T20:58:40.261Z,19.45
2023-04-22T21:01:09.295Z,19.43
2023-04-22T21:03:39.583Z,19.41
2023-04-22T21:06:08.479Z,19.38
2023-04-22T21:08:37.010Z,19.37
2023-04-22T21:11:04.680Z,19.34
2023-04-22T21:13:32.047Z,19.32
2023-04-22T21:16:05.954Z,19.30
2023-04-22T21:18:34.629Z,19.25
2023-04-22T21:21:04.076Z,19.23
2023-04-22T21:23:31.713Z,19.20
2023-04-22T21:26:01.563Z,19.18
2023-04-22T21:28:30.012Z,19.13
2023-04-22T21:31:03.721Z,19.08
2023-04-22T21:33:34.104Z,19.04
2023-04-22T21:36:01.180Z,19.03
2023-04-22T21:38:29.225Z,19.02
2023-04-22T21:40:56.257Z,19.01
2023-04-22T21:43:23.548Z,18.99
2023-04-22T21:45:51.019Z,18.99
2023-04-22T21:48:18.074Z,18.97
2023-04-22T21:50:45.460Z,18.96
2023-04-22T21:53:13.022Z,18.95
2023-04-22T21:55:41.147Z,18.90
2023-04-22T21:58:08.377Z,18.88
2023-04-22T22:00:37.842Z,18.85
2023-04-22T22:03:06.264Z,18.84
2023-04-22T22:05:33.561Z,18.82
2023-04-22T22:08:00.713Z,18.80
2023-04-22T22:10:28.447Z,18.79
2023-04-22T22:12:56.281Z,18.76
2023-04-22T22:15:23.420Z,18.74
2023-04-22T22:17:51.310Z,18.72
2023-04-22T22:20:21.540Z,18.71
2023-04-22T22:22:48.493Z,18.69
2023-04-22T22:25:16.386Z,18.68
2023-04-22T22:27:49.433Z,18.69
2023-04-22T22:30:19.065Z,18.69
2023-04-22T22:32:46.448Z,18.70
2023-04-22T22:35:13.689Z,18.72
2023-04-22T22:37:41.146Z,18.69
2023-04-22T22:40:09.026Z,18.68
2023-04-22T22:42:36.248Z,18.69
2023-04-22T22:45:05.267Z,18.69
2023-04-22T22:47:33.120Z,18.65
2023-04-22T22:50:00.764Z,18.53
2023-04-22T22:52:28.846Z,18.48
2023-04-22T22:54:56.116Z,18.45
2023-04-22T22:57:23.182Z,18.46
2023-04-22T22:59:50.074Z,18.43
2023-04-22T23:02:17.561Z,18.42
2023-04-22T23:04:45.145Z,18.41
2023-04-22T23:07:14.618Z,18.38
2023-04-22T23:09:41.836Z,18.37
2023-04-22T23:12:09.313Z,18.35
2023-04-22T23:14:36.679Z,18.29
2023-04-22T23:17:03.860Z,18.28
2023-04-22T23:19:31.599Z,18.28
2023-04-22T23:21:59.113Z,18.25
2023-04-22T23:24:26.719Z,18.25
2023-04-22T23:26:54.089Z,18.25
2023-04-22T23:29:21.905Z,18.24
2023-04-22T23:31:52.343Z,18.23
2023-04-22T23:34:33.747Z,18.21
2023-04-22T23:37:09.003Z,18.15
2023-04-22T23:39:36.092Z,18.11
2023-04-22T23:42:03.225Z,18.08
2023-04-22T23:44:30.283Z,18.07
2023-04-22T23:46:57.601Z,18.05
2023-04-22T23:49:24.865Z,18.02
2023-04-22T23:51:51.890Z,17.99
2023-04-22T23:54:18.988Z,17.97
2023-04-22T23:56:46.817Z,17.94
2023-04-22T23:59:14.307Z,17.92
